sensor_id;sensor_type;location;lat;lon;timestamp;temperature;humidity
18797;DHT22;9526;52.612;13.300;2023-04-12T00:00:40;3.70;99.90
18797;DHT22;9526;52.612;13.300;2023-04-12T00:03:05;3.60;99.90
18797;DHT22;9526;52.612;13.300;2023-04-12T00:05:29;3.60;99.90
18797;DHT22;9526;52.612;13.300;2023-04-12T00:07:54;3.60;99.90
18797;DHT22;9526;52.612;13.300;2023-04-12T00:10:19;3.60;99.90
18797;DHT22;9526;52.612;13.300;2023-04-12T00:12:44;3.50;99.90
18797;DHT22;9526;52.612;13.300;2023-04-12T00:15:08;3.50;99.90
18797;DHT22;9526;52.612;13.300;2023-04-12T00:17:32;3.50;99.90
18797;DHT22;9526;52.612;13.300;2023-04-12T00:19:56;3.50;99.90
18797;DHT22;9526;52.612;13.300;2023-04-12T00:22:20;3.50;99.90
18797;DHT22;9526;52.612;13.300;2023-04-12T00:24:44;3.40;99.90
18797;DHT22;9526;52.612;13.300;2023-04-12T00:27:09;3.40;99.90
18797;DHT22;9526;52.612;13.300;2023-04-12T00:29:33;3.40;99.90
18797;DHT22;9526;52.612;13.300;2023-04-12T00:31:56;3.40;99.90
18797;DHT22;9526;52.612;13.300;2023-04-12T00:34:24;3.40;99.90
18797;DHT22;9526;52.612;13.300;2023-04-12T00:36:48;3.30;99.90
18797;DHT22;9526;52.612;13.300;2023-04-12T00:39:12;3.30;99.90
18797;DHT22;9526;52.612;13.300;2023-04-12T00:41:37;3.30;99.90
18797;DHT22;9526;52.612;13.300;2023-04-12T00:44:01;3.30;99.90
18797;DHT22;9526;52.612;13.300;2023-04-12T00:46:25;3.30;99.90
18797;DHT22;9526;52.612;13.300;2023-04-12T00:48:50;3.20;99.90
18797;DHT22;9526;52.612;13.300;2023-04-12T00:51:14;3.20;99.90
18797;DHT22;9526;52.612;13.300;2023-04-12T00:53:39;3.20;99.90
18797;DHT22;9526;52.612;13.300;2023-04-12T00:56:05;3.10;99.90
18797;DHT22;9526;52.612;13.300;2023-04-12T00:58:34;3.10;99.90
18797;DHT22;9526;52.612;13.300;2023-04-12T01:00:58;3.10;99.90
18797;DHT22;9526;52.612;13.300;2023-04-12T01:03:23;3.10;99.90
18797;DHT22;9526;52.612;13.300;2023-04-12T01:05:55;3.00;99.90
18797;DHT22;9526;52.612;13.300;2023-04-12T01:08:38;3.00;99.90
18797;DHT22;9526;52.612;13.300;2023-04-12T01:11:12;3.00;99.90
18797;DHT22;9526;52.612;13.300;2023-04-12T01:13:44;3.00;99.90
18797;DHT22;9526;52.612;13.300;2023-04-12T01:16:27;2.90;99.90
18797;DHT22;9526;52.612;13.300;2023-04-12T01:18:58;2.90;99.90
18797;DHT22;9526;52.612;13.300;2023-04-12T01:21:33;2.90;99.90
18797;DHT22;9526;52.612;13.300;2023-04-12T01:24:17;2.80;99.90
18797;DHT22;9526;52.612;13.300;2023-04-12T01:26:46;2.80;99.90
18797;DHT22;9526;52.612;13.300;2023-04-12T01:29:15;2.80;99.90
18797;DHT22;9526;52.612;13.300;2023-04-12T01:31:49;2.70;99.90
18797;DHT22;9526;52.612;13.300;2023-04-12T01:34:17;2.70;99.90
18797;DHT22;9526;52.612;13.300;2023-04-12T01:36:43;2.70;99.90
18797;DHT22;9526;52.612;13.300;2023-04-12T01:39:07;2.60;99.90
18797;DHT22;9526;52.612;13.300;2023-04-12T01:41:31;2.60;99.90
18797;DHT22;9526;52.612;13.300;2023-04-12T01:43:55;2.60;99.90
18797;DHT22;9526;52.612;13.300;2023-04-12T01:46:22;2.60;99.90
18797;DHT22;9526;52.612;13.300;2023-04-12T01:48:48;2.60;99.90
18797;DHT22;9526;52.612;13.300;2023-04-12T01:51:19;2.50;99.90
18797;DHT22;9526;52.612;13.300;2023-04-12T01:53:58;2.50;99.90
18797;DHT22;9526;52.612;13.300;2023-04-12T01:56:23;2.50;99.90
18797;DHT22;9526;52.612;13.300;2023-04-12T01:58:52;2.50;99.90
18797;DHT22;9526;52.612;13.300;2023-04-12T02:01:20;2.40;99.90
18797;DHT22;9526;52.612;13.300;2023-04-12T02:03:45;2.40;99.90
18797;DHT22;9526;52.612;13.300;2023-04-12T02:06:11;2.40;99.90
18797;DHT22;9526;52.612;13.300;2023-04-12T02:08:35;2.40;99.90
18797;DHT22;9526;52.612;13.300;2023-04-12T02:10:59;2.30;99.90
18797;DHT22;9526;52.612;13.300;2023-04-12T02:13:22;2.30;99.90
18797;DHT22;9526;52.612;13.300;2023-04-12T02:15:47;2.30;99.90
18797;DHT22;9526;52.612;13.300;2023-04-12T02:18:12;2.20;99.90
18797;DHT22;9526;52.612;13.300;2023-04-12T02:20:38;2.20;99.90
18797;DHT22;9526;52.612;13.300;2023-04-12T02:23:02;2.20;99.90
18797;DHT22;9526;52.612;13.300;2023-04-12T02:25:26;2.20;99.90
18797;DHT22;9526;52.612;13.300;2023-04-12T02:27:50;2.20;99.90
18797;DHT22;9526;52.612;13.300;2023-04-12T02:30:14;2.10;99.90
18797;DHT22;9526;52.612;13.300;2023-04-12T02:32:41;2.10;99.90
18797;DHT22;9526;52.612;13.300;2023-04-12T02:35:17;2.10;99.90
18797;DHT22;9526;52.612;13.300;2023-04-12T02:37:47;2.10;99.90
18797;DHT22;9526;52.612;13.300;2023-04-12T02:40:11;2.00;99.90
18797;DHT22;9526;52.612;13.300;2023-04-12T02:42:37;2.00;99.90
18797;DHT22;9526;52.612;13.300;2023-04-12T02:45:01;2.00;99.90
18797;DHT22;9526;52.612;13.300;2023-04-12T02:47:26;2.00;99.90
18797;DHT22;9526;52.612;13.300;2023-04-12T02:49:53;2.00;99.90
18797;DHT22;9526;52.612;13.300;2023-04-12T02:52:19;1.90;99.90
18797;DHT22;9526;52.612;13.300;2023-04-12T02:54:58;1.90;99.90
18797;DHT22;9526;52.612;13.300;2023-04-12T02:57:23;1.90;99.90
18797;DHT22;9526;52.612;13.300;2023-04-12T02:59:46;1.80;99.90
18797;DHT22;9526;52.612;13.300;2023-04-12T03:02:15;1.90;99.90
18797;DHT22;9526;52.612;13.300;2023-04-12T03:04:39;1.80;99.90
18797;DHT22;9526;52.612;13.300;2023-04-12T03:07:07;1.80;99.90
18797;DHT22;9526;52.612;13.300;2023-04-12T03:09:40;1.80;99.90
18797;DHT22;9526;52.612;13.300;2023-04-12T03:12:06;1.80;99.90
18797;DHT22;9526;52.612;13.300;2023-04-12T03:14:36;1.70;99.90
18797;DHT22;9526;52.612;13.300;2023-04-12T03:17:01;1.70;99.90
18797;DHT22;9526;52.612;13.300;2023-04-12T03:19:25;1.70;99.90
18797;DHT22;9526;52.612;13.300;2023-04-12T03:21:49;1.70;99.90
18797;DHT22;9526;52.612;13.300;2023-04-12T03:24:13;1.60;99.90
18797;DHT22;9526;52.612;13.300;2023-04-12T03:26:39;1.60;99.90
18797;DHT22;9526;52.612;13.300;2023-04-12T03:29:07;1.60;99.90
18797;DHT22;9526;52.612;13.300;2023-04-12T03:31:34;1.60;99.90
18797;DHT22;9526;52.612;13.300;2023-04-12T03:34:02;1.60;99.90
18797;DHT22;9526;52.612;13.300;2023-04-12T03:36:26;1.50;99.90
18797;DHT22;9526;52.612;13.300;2023-04-12T03:38:58;1.50;99.90
18797;DHT22;9526;52.612;13.300;2023-04-12T03:41:24;1.50;99.90
18797;DHT22;9526;52.612;13.300;2023-04-12T03:43:50;1.50;99.90
18797;DHT22;9526;52.612;13.300;2023-04-12T03:46:14;1.40;99.90
18797;DHT22;9526;52.612;13.300;2023-04-12T03:48:40;1.50;99.90
18797;DHT22;9526;52.612;13.300;2023-04-12T03:51:04;1.40;99.90
18797;DHT22;9526;52.612;13.300;2023-04-12T03:53:33;1.40;99.90
18797;DHT22;9526;52.612;13.300;2023-04-12T03:55:57;1.40;99.90
18797;DHT22;9526;52.612;13.300;2023-04-12T03:58:24;1.40;99.90
18797;DHT22;9526;52.612;13.300;2023-04-12T04:00:50;1.40;99.90
18797;DHT22;9526;52.612;13.300;2023-04-12T04:03:14;1.30;99.90
18797;DHT22;9526;52.612;13.300;2023-04-12T04:05:56;1.30;99.90
18797;DHT22;9526;52.612;13.300;2023-04-12T04:08:20;1.30;99.90
18797;DHT22;9526;52.612;13.300;2023-04-12T04:10:46;1.30;99.90
18797;DHT22;9526;52.612;13.300;2023-04-12T04:13:09;1.30;99.90
18797;DHT22;9526;52.612;13.300;2023-04-12T04:15:33;1.20;99.90
18797;DHT22;9526;52.612;13.300;2023-04-12T04:17:59;1.30;99.90
18797;DHT22;9526;52.612;13.300;2023-04-12T04:20:23;1.30;99.90
18797;DHT22;9526;52.612;13.300;2023-04-12T04:22:49;1.20;99.90
18797;DHT22;9526;52.612;13.300;2023-04-12T04:25:16;1.20;99.90
18797;DHT22;9526;52.612;13.300;2023-04-12T04:27:45;1.20;99.90
18797;DHT22;9526;52.612;13.300;2023-04-12T04:30:11;1.20;99.90
18797;DHT22;9526;52.612;13.300;2023-04-12T04:32:39;1.20;99.90
18797;DHT22;9526;52.612;13.300;2023-04-12T04:35:06;1.20;99.90
18797;DHT22;9526;52.612;13.300;2023-04-12T04:37:43;1.20;99.90
18797;DHT22;9526;52.612;13.300;2023-04-12T04:40:10;1.20;99.90
18797;DHT22;9526;52.612;13.300;2023-04-12T04:42:33;1.20;99.90
18797;DHT22;9526;52.612;13.300;2023-04-12T04:44:59;1.20;99.90
18797;DHT22;9526;52.612;13.300;2023-04-12T04:47:31;1.20;99.90
18797;DHT22;9526;52.612;13.300;2023-04-12T04:49:55;1.20;99.90
18797;DHT22;9526;52.612;13.300;2023-04-12T04:52:22;1.20;99.90
18797;DHT22;9526;52.612;13.300;2023-04-12T04:54:50;1.20;99.90
18797;DHT22;9526;52.612;13.300;2023-04-12T04:57:20;1.20;99.90
18797;DHT22;9526;52.612;13.300;2023-04-12T04:59:44;1.20;99.90
18797;DHT22;9526;52.612;13.300;2023-04-12T05:02:10;1.30;99.90
18797;DHT22;9526;52.612;13.300;2023-04-12T05:04:35;1.30;99.90
18797;DHT22;9526;52.612;13.300;2023-04-12T05:06:59;1.30;99.90
18797;DHT22;9526;52.612;13.300;2023-04-12T05:09:24;1.30;99.90
18797;DHT22;9526;52.612;13.300;2023-04-12T05:11:50;1.40;99.90
18797;DHT22;9526;52.612;13.300;2023-04-12T05:14:14;1.40;99.90
18797;DHT22;9526;52.612;13.300;2023-04-12T05:16:38;1.40;99.90
18797;DHT22;9526;52.612;13.300;2023-04-12T05:19:01;1.50;99.90
18797;DHT22;9526;52.612;13.300;2023-04-12T05:21:25;1.50;99.90
18797;DHT22;9526;52.612;13.300;2023-04-12T05:23:49;1.60;99.90
18797;DHT22;9526;52.612;13.300;2023-04-12T05:26:14;1.60;99.90
18797;DHT22;9526;52.612;13.300;2023-04-12T05:28:42;1.70;99.90
18797;DHT22;9526;52.612;13.300;2023-04-12T05:31:06;1.70;99.90
18797;DHT22;9526;52.612;13.300;2023-04-12T05:33:32;1.80;99.90
18797;DHT22;9526;52.612;13.300;2023-04-12T05:35:57;1.90;99.90
18797;DHT22;9526;52.612;13.300;2023-04-12T05:38:23;2.00;99.90
18797;DHT22;9526;52.612;13.300;2023-04-12T05:40:50;2.00;99.90
18797;DHT22;9526;52.612;13.300;2023-04-12T05:43:18;2.10;99.90
18797;DHT22;9526;52.612;13.300;2023-04-12T05:45:42;2.20;99.90
18797;DHT22;9526;52.612;13.300;2023-04-12T05:48:05;2.30;99.90
18797;DHT22;9526;52.612;13.300;2023-04-12T05:50:29;2.40;99.90
18797;DHT22;9526;52.612;13.300;2023-04-12T05:52:54;2.50;99.90
18797;DHT22;9526;52.612;13.300;2023-04-12T05:55:22;2.60;99.90
18797;DHT22;9526;52.612;13.300;2023-04-12T05:57:46;2.70;99.90
18797;DHT22;9526;52.612;13.300;2023-04-12T06:00:14;2.90;99.90
18797;DHT22;9526;52.612;13.300;2023-04-12T06:02:40;3.00;99.90
18797;DHT22;9526;52.612;13.300;2023-04-12T06:05:05;3.20;99.90
18797;DHT22;9526;52.612;13.300;2023-04-12T06:07:30;3.30;99.90
18797;DHT22;9526;52.612;13.300;2023-04-12T06:09:53;3.70;99.90
18797;DHT22;9526;52.612;13.300;2023-04-12T06:12:17;4.20;99.90
18797;DHT22;9526;52.612;13.300;2023-04-12T06:14:41;4.80;99.90
18797;DHT22;9526;52.612;13.300;2023-04-12T06:17:06;5.50;99.90
18797;DHT22;9526;52.612;13.300;2023-04-12T06:19:30;6.30;99.90
18797;DHT22;9526;52.612;13.300;2023-04-12T06:21:54;6.90;99.90
18797;DHT22;9526;52.612;13.300;2023-04-12T06:24:17;7.50;99.90
18797;DHT22;9526;52.612;13.300;2023-04-12T06:26:41;8.20;99.90
18797;DHT22;9526;52.612;13.300;2023-04-12T06:29:08;9.00;99.90
18797;DHT22;9526;52.612;13.300;2023-04-12T06:31:32;9.90;99.90
18797;DHT22;9526;52.612;13.300;2023-04-12T06:33:57;10.40;99.90
18797;DHT22;9526;52.612;13.300;2023-04-12T06:36:22;11.00;99.90
18797;DHT22;9526;52.612;13.300;2023-04-12T06:38:45;11.60;99.90
18797;DHT22;9526;52.612;13.300;2023-04-12T06:41:11;11.80;99.90
18797;DHT22;9526;52.612;13.300;2023-04-12T06:43:35;12.40;99.90
18797;DHT22;9526;52.612;13.300;2023-04-12T06:45:59;13.10;99.90
18797;DHT22;9526;52.612;13.300;2023-04-12T06:48:24;13.20;99.90
18797;DHT22;9526;52.612;13.300;2023-04-12T06:50:49;13.40;99.90
18797;DHT22;9526;52.612;13.300;2023-04-12T06:53:12;13.60;99.90
18797;DHT22;9526;52.612;13.300;2023-04-12T06:55:36;13.80;99.90
18797;DHT22;9526;52.612;13.300;2023-04-12T06:58:00;14.50;99.90
18797;DHT22;9526;52.612;13.300;2023-04-12T07:00:24;14.80;99.90
18797;DHT22;9526;52.612;13.300;2023-04-12T07:02:47;15.00;99.90
18797;DHT22;9526;52.612;13.300;2023-04-12T07:05:12;14.80;99.90
18797;DHT22;9526;52.612;13.300;2023-04-12T07:07:37;14.60;99.90
18797;DHT22;9526;52.612;13.300;2023-04-12T07:10:00;14.00;99.90
18797;DHT22;9526;52.612;13.300;2023-04-12T07:12:25;14.10;99.90
18797;DHT22;9526;52.612;13.300;2023-04-12T07:14:48;14.60;99.90
18797;DHT22;9526;52.612;13.300;2023-04-12T07:17:12;14.50;99.90
18797;DHT22;9526;52.612;13.300;2023-04-12T07:19:36;14.70;99.90
18797;DHT22;9526;52.612;13.300;2023-04-12T07:22:00;14.40;99.90
18797;DHT22;9526;52.612;13.300;2023-04-12T07:24:25;14.60;99.90
18797;DHT22;9526;52.612;13.300;2023-04-12T07:26:49;14.50;99.90
18797;DHT22;9526;52.612;13.300;2023-04-12T07:29:15;14.00;99.90
18797;DHT22;9526;52.612;13.300;2023-04-12T07:31:38;13.90;99.90
18797;DHT22;9526;52.612;13.300;2023-04-12T07:34:02;13.80;99.90
18797;DHT22;9526;52.612;13.300;2023-04-12T07:36:26;13.70;99.90
18797;DHT22;9526;52.612;13.300;2023-04-12T07:38:49;13.60;99.90
18797;DHT22;9526;52.612;13.300;2023-04-12T07:41:18;13.50;99.90
18797;DHT22;9526;52.612;13.300;2023-04-12T07:43:41;13.50;99.90
18797;DHT22;9526;52.612;13.300;2023-04-12T07:46:05;13.50;99.90
18797;DHT22;9526;52.612;13.300;2023-04-12T07:48:30;13.20;99.90
18797;DHT22;9526;52.612;13.300;2023-04-12T07:50:53;13.10;99.90
18797;DHT22;9526;52.612;13.300;2023-04-12T07:53:18;13.10;99.90
18797;DHT22;9526;52.612;13.300;2023-04-12T07:55:43;13.10;99.90
18797;DHT22;9526;52.612;13.300;2023-04-12T07:58:08;13.20;99.90
18797;DHT22;9526;52.612;13.300;2023-04-12T08:00:31;13.40;99.90
18797;DHT22;9526;52.612;13.300;2023-04-12T08:02:55;13.40;99.90
18797;DHT22;9526;52.612;13.300;2023-04-12T08:05:19;13.30;99.90
18797;DHT22;9526;52.612;13.300;2023-04-12T08:07:42;13.40;99.90
18797;DHT22;9526;52.612;13.300;2023-04-12T08:10:07;13.60;99.90
18797;DHT22;9526;52.612;13.300;2023-04-12T08:12:31;13.50;99.90
18797;DHT22;9526;52.612;13.300;2023-04-12T08:14:56;13.10;99.90
18797;DHT22;9526;52.612;13.300;2023-04-12T08:17:20;13.00;99.90
18797;DHT22;9526;52.612;13.300;2023-04-12T08:19:44;13.10;99.90
18797;DHT22;9526;52.612;13.300;2023-04-12T08:22:08;13.20;99.90
18797;DHT22;9526;52.612;13.300;2023-04-12T08:24:34;13.20;99.90
18797;DHT22;9526;52.612;13.300;2023-04-12T08:26:58;13.30;99.90
18797;DHT22;9526;52.612;13.300;2023-04-12T08:29:22;13.30;99.90
18797;DHT22;9526;52.612;13.300;2023-04-12T08:31:47;13.40;99.90
18797;DHT22;9526;52.612;13.300;2023-04-12T08:34:11;13.70;99.90
18797;DHT22;9526;52.612;13.300;2023-04-12T08:36:35;13.70;99.90
18797;DHT22;9526;52.612;13.300;2023-04-12T08:38:58;13.60;99.90
18797;DHT22;9526;52.612;13.300;2023-04-12T08:41:23;13.40;99.90
18797;DHT22;9526;52.612;13.300;2023-04-12T08:43:47;13.40;99.90
18797;DHT22;9526;52.612;13.300;2023-04-12T08:46:11;13.70;99.90
18797;DHT22;9526;52.612;13.300;2023-04-12T08:48:39;14.00;99.90
18797;DHT22;9526;52.612;13.300;2023-04-12T08:51:05;14.20;99.90
18797;DHT22;9526;52.612;13.300;2023-04-12T08:53:29;14.10;98.60
18797;DHT22;9526;52.612;13.300;2023-04-12T08:55:53;14.40;99.90
18797;DHT22;9526;52.612;13.300;2023-04-12T08:58:17;14.30;98.80
18797;DHT22;9526;52.612;13.300;2023-04-12T09:00:41;14.30;99.30
18797;DHT22;9526;52.612;13.300;2023-04-12T09:03:06;14.00;97.60
18797;DHT22;9526;52.612;13.300;2023-04-12T09:05:33;14.10;97.10
18797;DHT22;9526;52.612;13.300;2023-04-12T09:07:57;13.90;98.90
18797;DHT22;9526;52.612;13.300;2023-04-12T09:10:31;14.00;99.10
18797;DHT22;9526;52.612;13.300;2023-04-12T09:12:55;14.00;97.70
18797;DHT22;9526;52.612;13.300;2023-04-12T09:15:20;14.30;97.70
18797;DHT22;9526;52.612;13.300;2023-04-12T09:17:44;14.40;96.40
18797;DHT22;9526;52.612;13.300;2023-04-12T09:20:22;14.30;95.20
18797;DHT22;9526;52.612;13.300;2023-04-12T09:22:48;14.30;95.50
18797;DHT22;9526;52.612;13.300;2023-04-12T09:25:14;14.50;96.80
18797;DHT22;9526;52.612;13.300;2023-04-12T09:27:45;14.70;94.20
18797;DHT22;9526;52.612;13.300;2023-04-12T09:30:10;15.00;96.70
18797;DHT22;9526;52.612;13.300;2023-04-12T09:32:34;15.40;94.40
18797;DHT22;9526;52.612;13.300;2023-04-12T09:34:58;16.00;95.60
18797;DHT22;9526;52.612;13.300;2023-04-12T09:37:23;15.80;92.10
18797;DHT22;9526;52.612;13.300;2023-04-12T09:39:58;15.70;91.00
18797;DHT22;9526;52.612;13.300;2023-04-12T09:42:22;15.60;92.40
18797;DHT22;9526;52.612;13.300;2023-04-12T09:44:56;15.60;91.90
18797;DHT22;9526;52.612;13.300;2023-04-12T09:47:20;15.50;89.90
18797;DHT22;9526;52.612;13.300;2023-04-12T09:49:46;16.10;92.90
18797;DHT22;9526;52.612;13.300;2023-04-12T09:52:10;16.30;88.90
18797;DHT22;9526;52.612;13.300;2023-04-12T09:54:38;16.50;88.40
18797;DHT22;9526;52.612;13.300;2023-04-12T09:57:07;16.30;86.70
18797;DHT22;9526;52.612;13.300;2023-04-12T09:59:35;16.00;82.90
18797;DHT22;9526;52.612;13.300;2023-04-12T10:02:04;16.00;86.50
18797;DHT22;9526;52.612;13.300;2023-04-12T10:04:30;16.10;86.00
18797;DHT22;9526;52.612;13.300;2023-04-12T10:06:54;16.20;80.60
18797;DHT22;9526;52.612;13.300;2023-04-12T10:09:18;16.10;81.40
18797;DHT22;9526;52.612;13.300;2023-04-12T10:11:44;16.20;83.50
18797;DHT22;9526;52.612;13.300;2023-04-12T10:14:09;16.40;89.70
18797;DHT22;9526;52.612;13.300;2023-04-12T10:16:39;17.00;90.70
18797;DHT22;9526;52.612;13.300;2023-04-12T10:19:03;16.80;80.70
18797;DHT22;9526;52.612;13.300;2023-04-12T10:21:27;16.90;83.60
18797;DHT22;9526;52.612;13.300;2023-04-12T10:23:51;17.00;84.20
18797;DHT22;9526;52.612;13.300;2023-04-12T10:26:16;17.30;82.20
18797;DHT22;9526;52.612;13.300;2023-04-12T10:28:39;17.50;80.40
18797;DHT22;9526;52.612;13.300;2023-04-12T10:31:29;17.40;82.60
18797;DHT22;9526;52.612;13.300;2023-04-12T10:33:54;17.50;79.50
18797;DHT22;9526;52.612;13.300;2023-04-12T10:36:18;17.50;75.80
18797;DHT22;9526;52.612;13.300;2023-04-12T10:38:46;17.40;80.60
18797;DHT22;9526;52.612;13.300;2023-04-12T10:41:14;17.70;74.90
18797;DHT22;9526;52.612;13.300;2023-04-12T10:43:39;17.70;77.50
18797;DHT22;9526;52.612;13.300;2023-04-12T10:46:03;17.60;76.30
18797;DHT22;9526;52.612;13.300;2023-04-12T10:48:30;17.60;79.60
18797;DHT22;9526;52.612;13.300;2023-04-12T10:51:16;17.70;80.50
18797;DHT22;9526;52.612;13.300;2023-04-12T10:53:44;17.20;73.50
18797;DHT22;9526;52.612;13.300;2023-04-12T10:56:35;17.30;75.10
18797;DHT22;9526;52.612;13.300;2023-04-12T10:59:03;17.10;81.10
18797;DHT22;9526;52.612;13.300;2023-04-12T11:01:35;17.10;78.30
18797;DHT22;9526;52.612;13.300;2023-04-12T11:04:13;17.20;79.20
18797;DHT22;9526;52.612;13.300;2023-04-12T11:06:54;17.70;79.70
18797;DHT22;9526;52.612;13.300;2023-04-12T11:09:58;17.60;76.40
18797;DHT22;9526;52.612;13.300;2023-04-12T11:12:27;17.60;76.00
18797;DHT22;9526;52.612;13.300;2023-04-12T11:14:51;17.50;73.00
18797;DHT22;9526;52.612;13.300;2023-04-12T11:17:23;17.30;73.70
18797;DHT22;9526;52.612;13.300;2023-04-12T11:19:55;17.20;78.50
18797;DHT22;9526;52.612;13.300;2023-04-12T11:22:22;17.30;74.70
18797;DHT22;9526;52.612;13.300;2023-04-12T11:24:49;17.30;73.90
18797;DHT22;9526;52.612;13.300;2023-04-12T11:27:14;17.20;77.60
18797;DHT22;9526;52.612;13.300;2023-04-12T11:29:38;16.90;74.40
18797;DHT22;9526;52.612;13.300;2023-04-12T11:32:03;17.20;77.00
18797;DHT22;9526;52.612;13.300;2023-04-12T11:34:31;17.50;80.70
18797;DHT22;9526;52.612;13.300;2023-04-12T11:36:57;17.60;75.40
18797;DHT22;9526;52.612;13.300;2023-04-12T11:39:21;17.40;80.10
18797;DHT22;9526;52.612;13.300;2023-04-12T11:41:45;17.40;77.80
18797;DHT22;9526;52.612;13.300;2023-04-12T11:44:08;17.40;73.40
18797;DHT22;9526;52.612;13.300;2023-04-12T11:46:32;17.60;75.90
18797;DHT22;9526;52.612;13.300;2023-04-12T11:48:56;17.80;76.00
18797;DHT22;9526;52.612;13.300;2023-04-12T11:51:20;17.80;76.50
18797;DHT22;9526;52.612;13.300;2023-04-12T11:53:51;17.70;72.80
18797;DHT22;9526;52.612;13.300;2023-04-12T11:56:15;17.50;74.80
18797;DHT22;9526;52.612;13.300;2023-04-12T11:58:39;16.80;75.90
18797;DHT22;9526;52.612;13.300;2023-04-12T12:01:03;16.40;76.50
18797;DHT22;9526;52.612;13.300;2023-04-12T12:03:27;16.60;75.30
18797;DHT22;9526;52.612;13.300;2023-04-12T12:05:51;16.20;77.10
18797;DHT22;9526;52.612;13.300;2023-04-12T12:08:17;16.30;76.60
18797;DHT22;9526;52.612;13.300;2023-04-12T12:10:42;16.20;75.80
18797;DHT22;9526;52.612;13.300;2023-04-12T12:13:26;16.20;77.30
18797;DHT22;9526;52.612;13.300;2023-04-12T12:15:51;16.40;78.30
18797;DHT22;9526;52.612;13.300;2023-04-12T12:18:15;16.10;78.20
18797;DHT22;9526;52.612;13.300;2023-04-12T12:20:40;15.90;74.90
18797;DHT22;9526;52.612;13.300;2023-04-12T12:23:04;15.90;78.40
18797;DHT22;9526;52.612;13.300;2023-04-12T12:25:28;15.90;75.20
18797;DHT22;9526;52.612;13.300;2023-04-12T12:27:56;15.70;77.50
18797;DHT22;9526;52.612;13.300;2023-04-12T12:30:20;16.00;78.10
18797;DHT22;9526;52.612;13.300;2023-04-12T12:32:44;15.90;76.40
18797;DHT22;9526;52.612;13.300;2023-04-12T12:35:08;16.00;78.90
18797;DHT22;9526;52.612;13.300;2023-04-12T12:37:32;16.10;77.00
18797;DHT22;9526;52.612;13.300;2023-04-12T12:40:05;16.00;74.40
18797;DHT22;9526;52.612;13.300;2023-04-12T12:42:34;16.00;75.90
18797;DHT22;9526;52.612;13.300;2023-04-12T12:45:00;16.30;78.90
18797;DHT22;9526;52.612;13.300;2023-04-12T12:47:25;16.20;77.20
18797;DHT22;9526;52.612;13.300;2023-04-12T12:49:48;16.10;73.70
18797;DHT22;9526;52.612;13.300;2023-04-12T12:52:12;16.10;74.10
18797;DHT22;9526;52.612;13.300;2023-04-12T12:54:38;16.20;76.00
18797;DHT22;9526;52.612;13.300;2023-04-12T12:57:03;16.00;76.10
18797;DHT22;9526;52.612;13.300;2023-04-12T12:59:26;16.00;76.70
18797;DHT22;9526;52.612;13.300;2023-04-12T13:01:51;15.90;74.60
18797;DHT22;9526;52.612;13.300;2023-04-12T13:04:15;15.90;76.50
18797;DHT22;9526;52.612;13.300;2023-04-12T13:06:39;16.00;76.30
18797;DHT22;9526;52.612;13.300;2023-04-12T13:09:03;16.00;75.30
18797;DHT22;9526;52.612;13.300;2023-04-12T13:11:26;16.00;76.70
18797;DHT22;9526;52.612;13.300;2023-04-12T13:13:50;16.30;77.20
18797;DHT22;9526;52.612;13.300;2023-04-12T13:16:14;16.40;78.20
18797;DHT22;9526;52.612;13.300;2023-04-12T13:18:39;16.60;81.30
18797;DHT22;9526;52.612;13.300;2023-04-12T13:21:03;16.80;78.30
18797;DHT22;9526;52.612;13.300;2023-04-12T13:23:27;16.80;73.90
18797;DHT22;9526;52.612;13.300;2023-04-12T13:25:50;16.70;73.50
18797;DHT22;9526;52.612;13.300;2023-04-12T13:28:14;16.80;74.30
18797;DHT22;9526;52.612;13.300;2023-04-12T13:30:38;16.80;73.80
18797;DHT22;9526;52.612;13.300;2023-04-12T13:33:01;16.90;75.10
18797;DHT22;9526;52.612;13.300;2023-04-12T13:35:27;16.90;74.80
18797;DHT22;9526;52.612;13.300;2023-04-12T13:37:50;16.70;75.60
18797;DHT22;9526;52.612;13.300;2023-04-12T13:40:14;16.70;73.60
18797;DHT22;9526;52.612;13.300;2023-04-12T13:42:38;16.40;75.40
18797;DHT22;9526;52.612;13.300;2023-04-12T13:45:01;16.30;77.10
18797;DHT22;9526;52.612;13.300;2023-04-12T13:47:25;16.50;75.60
18797;DHT22;9526;52.612;13.300;2023-04-12T13:49:49;16.30;75.00
18797;DHT22;9526;52.612;13.300;2023-04-12T13:52:14;16.40;78.50
18797;DHT22;9526;52.612;13.300;2023-04-12T13:54:37;16.40;74.00
18797;DHT22;9526;52.612;13.300;2023-04-12T13:57:01;16.40;76.20
18797;DHT22;9526;52.612;13.300;2023-04-12T13:59:27;16.20;74.60
18797;DHT22;9526;52.612;13.300;2023-04-12T14:01:50;16.20;76.50
18797;DHT22;9526;52.612;13.300;2023-04-12T14:04:14;16.30;77.40
18797;DHT22;9526;52.612;13.300;2023-04-12T14:06:38;16.10;75.50
18797;DHT22;9526;52.612;13.300;2023-04-12T14:09:03;16.10;77.00
18797;DHT22;9526;52.612;13.300;2023-04-12T14:11:27;16.20;76.60
18797;DHT22;9526;52.612;13.300;2023-04-12T14:13:51;15.90;75.20
18797;DHT22;9526;52.612;13.300;2023-04-12T14:16:15;15.80;76.30
18797;DHT22;9526;52.612;13.300;2023-04-12T14:18:39;15.70;77.70
18797;DHT22;9526;52.612;13.300;2023-04-12T14:21:03;15.70;78.10
18797;DHT22;9526;52.612;13.300;2023-04-12T14:23:26;15.70;79.50
18797;DHT22;9526;52.612;13.300;2023-04-12T14:25:53;15.60;79.40
18797;DHT22;9526;52.612;13.300;2023-04-12T14:28:17;15.60;80.60
18797;DHT22;9526;52.612;13.300;2023-04-12T14:30:42;15.60;77.30
18797;DHT22;9526;52.612;13.300;2023-04-12T14:33:06;15.50;79.80
18797;DHT22;9526;52.612;13.300;2023-04-12T14:35:30;15.40;80.60
18797;DHT22;9526;52.612;13.300;2023-04-12T14:37:53;15.40;81.10
18797;DHT22;9526;52.612;13.300;2023-04-12T14:40:17;15.40;82.90
18797;DHT22;9526;52.612;13.300;2023-04-12T14:42:43;15.30;81.60
18797;DHT22;9526;52.612;13.300;2023-04-12T14:45:07;15.20;81.10
18797;DHT22;9526;52.612;13.300;2023-04-12T14:47:32;15.20;84.00
18797;DHT22;9526;52.612;13.300;2023-04-12T14:49:56;15.10;85.00
18797;DHT22;9526;52.612;13.300;2023-04-12T14:52:20;15.10;83.00
18797;DHT22;9526;52.612;13.300;2023-04-12T14:54:43;15.00;85.00
18797;DHT22;9526;52.612;13.300;2023-04-12T14:57:07;14.80;87.90
18797;DHT22;9526;52.612;13.300;2023-04-12T14:59:33;14.70;87.00
18797;DHT22;9526;52.612;13.300;2023-04-12T15:01:57;14.60;86.40
18797;DHT22;9526;52.612;13.300;2023-04-12T15:04:21;14.50;90.40
18797;DHT22;9526;52.612;13.300;2023-04-12T15:06:45;14.60;91.70
18797;DHT22;9526;52.612;13.300;2023-04-12T15:09:08;14.50;93.00
18797;DHT22;9526;52.612;13.300;2023-04-12T15:11:32;14.50;92.70
18797;DHT22;9526;52.612;13.300;2023-04-12T15:13:56;14.40;93.00
18797;DHT22;9526;52.612;13.300;2023-04-12T15:16:22;14.30;93.30
18797;DHT22;9526;52.612;13.300;2023-04-12T15:18:45;14.30;94.40
18797;DHT22;9526;52.612;13.300;2023-04-12T15:21:10;14.30;94.40
18797;DHT22;9526;52.612;13.300;2023-04-12T15:23:34;14.20;94.70
18797;DHT22;9526;52.612;13.300;2023-04-12T15:25:58;14.20;94.70
18797;DHT22;9526;52.612;13.300;2023-04-12T15:28:23;14.10;95.20